Time;durP1;ratioP1;P1;durP2;ratioP2;P2;SDS_P1;SDS_P2;PMS_P1;PMS_P2;Temp;Humidity;BMP_temperature;BMP_pressure;BME280_temperature;BME280_humidity;BME280_pressure;Samples;Min_cycle;Max_cycle;Signal;HPM_P1;HPM_P2
2023/05/24 00:01:06;;;;;;;0.20;0.20;;;;;;;;;;5071961;28;20040;-73
2023/05/24 00:03:33;;;;;;;0.10;0.10;;;;;;;;;;5072188;28;20036;-74
2023/05/24 00:06:02;;;;;;;0.30;0.30;;;;;;;;;;5071929;28;20020;-73
2023/05/24 00:08:28;;;;;;;0.20;0.20;;;;;;;;;;5071113;28;20036;-73
2023/05/24 00:10:53;;;;;;;0.30;0.30;;;;;;;;;;5074433;28;20036;-73
2023/05/24 00:13:19;;;;;;;0.20;0.20;;;;;;;;;;5075180;28;20043;-74
2023/05/24 00:15:44;;;;;;;0.20;0.20;;;;;;;;;;5057151;28;20051;-75
2023/05/24 00:18:10;;;;;;;0.17;0.17;;;;;;;;;;5075272;28;20380;-76
2023/05/24 00:20:35;;;;;;;0.10;0.10;;;;;;;;;;5075156;28;20024;-76
2023/05/24 00:23:00;;;;;;;0.10;0.10;;;;;;;;;;5075264;28;20491;-75
2023/05/24 00:25:26;;;;;;;0.10;0.10;;;;;;;;;;5075206;28;20064;-75
2023/05/24 00:27:51;;;;;;;0.10;0.10;;;;;;;;;;5075366;28;20033;-77
2023/05/24 00:30:17;;;;;;;0.20;0.20;;;;;;;;;;5074976;28;20028;-77
2023/05/24 00:32:42;;;;;;;0.20;0.20;;;;;;;;;;5057054;28;20040;-75
2023/05/24 00:35:08;;;;;;;0.88;0.88;;;;;;;;;;5075093;28;20472;-75
2023/05/24 00:37:33;;;;;;;0.20;0.20;;;;;;;;;;5074956;28;20036;-75
2023/05/24 00:39:59;;;;;;;0.30;0.30;;;;;;;;;;5074950;28;20028;-76
2023/05/24 00:42:24;;;;;;;0.20;0.20;;;;;;;;;;5057023;28;20045;-75
2023/05/24 00:44:50;;;;;;;0.10;0.10;;;;;;;;;;5056970;28;20055;-75
2023/05/24 00:47:15;;;;;;;0.20;0.20;;;;;;;;;;5074594;28;20043;-75
2023/05/24 00:49:41;;;;;;;0.10;0.10;;;;;;;;;;5074890;28;20032;-73
2023/05/24 00:52:07;;;;;;;0.10;0.10;;;;;;;;;;5074769;28;20385;-73
2023/05/24 00:54:33;;;;;;;0.45;0.45;;;;;;;;;;5056624;28;20024;-73
2023/05/24 00:56:59;;;;;;;0.13;0.13;;;;;;;;;;5074628;28;20032;-73
2023/05/24 00:59:25;;;;;;;0.20;0.20;;;;;;;;;;5056543;28;20101;-73
2023/05/24 01:01:51;;;;;;;0.30;0.30;;;;;;;;;;5074412;28;20549;-74
2023/05/24 01:04:19;;;;;;;0.20;0.20;;;;;;;;;;5056776;28;20119;-74
2023/05/24 01:06:56;;;;;;;0.35;0.35;;;;;;;;;;5074672;28;20036;-74
2023/05/24 01:09:27;;;;;;;0.10;0.10;;;;;;;;;;5074502;28;20051;-73
2023/05/24 01:12:11;;;;;;;0.10;0.10;;;;;;;;;;5074648;28;20075;-72
2023/05/24 01:18:29;;;;;;;0.17;0.17;;;;;;;;;;5072212;28;20043;-74
2023/05/24 01:21:19;;;;;;;0.10;0.10;;;;;;;;;;5070767;28;20037;-73
2023/05/24 01:23:47;;;;;;;0.10;0.10;;;;;;;;;;5056489;28;20028;-74
2023/05/24 01:26:28;;;;;;;0.22;0.22;;;;;;;;;;5056545;28;20033;-74
2023/05/24 01:28:54;;;;;;;0.15;0.15;;;;;;;;;;5056071;28;20033;-75
2023/05/24 01:31:20;;;;;;;0.13;0.13;;;;;;;;;;5056044;28;20037;-75
2023/05/24 01:33:48;;;;;;;0.10;0.10;;;;;;;;;;5056286;28;20430;-76
2023/05/24 01:36:13;;;;;;;0.90;0.90;;;;;;;;;;5074076;28;20214;-76
2023/05/24 01:38:39;;;;;;;0.20;0.20;;;;;;;;;;5074080;28;20039;-76
2023/05/24 01:41:19;;;;;;;0.10;0.10;;;;;;;;;;5073964;28;20040;-75
2023/05/24 01:44:05;;;;;;;0.10;0.10;;;;;;;;;;5054044;28;20530;-75
2023/05/24 01:46:35;;;;;;;0.17;0.17;;;;;;;;;;5053195;28;20373;-76
2023/05/24 01:49:19;;;;;;;0.13;0.13;;;;;;;;;;5035936;28;20029;-76
2023/05/24 01:51:58;;;;;;;0.10;0.10;;;;;;;;;;5071017;28;20123;-76
2023/05/24 01:54:24;;;;;;;;;;;;;;;;;;5056392;28;20032;-76
2023/05/24 01:56:49;;;;;;;;;;;;;;;;;;5074290;28;19923;-76
2023/05/24 01:59:14;;;;;;;;;;;;;;;;;;5039555;28;19919;-76
2023/05/24 02:01:40;;;;;;;;;;;;;;;;;;5074141;28;20066;-76
2023/05/24 02:04:05;;;;;;;;;;;;;;;;;;5073054;28;20374;-75
2023/05/24 02:06:31;;;;;;;;;;;;;;;;;;5056188;28;20279;-76
2023/05/24 02:08:56;;;;;;;;;;;;;;;;;;5055780;28;19913;-76
2023/05/24 02:11:21;;;;;;;;;;;;;;;;;;5055931;28;20003;-76
2023/05/24 02:13:47;;;;;;;;;;;;;;;;;;5073917;28;19912;-76
2023/05/24 02:16:12;;;;;;;;;;;;;;;;;;5073880;28;19916;-75
2023/05/24 02:18:37;;;;;;;;;;;;;;;;;;5055894;28;20004;-76
2023/05/24 02:21:03;;;;;;;;;;;;;;;;;;5073810;28;19913;-76
2023/05/24 02:23:28;;;;;;;;;;;;;;;;;;5054929;28;19958;-75
2023/05/24 02:25:53;;;;;;;;;;;;;;;;;;5073318;28;19917;-76
2023/05/24 02:28:19;;;;;;;;;;;;;;;;;;5073722;28;19908;-73
2023/05/24 02:30:44;;;;;;;;;;;;;;;;;;5055797;28;20379;-74
2023/05/24 02:33:10;;;;;;;;;;;;;;;;;;5072532;28;19916;-73
2023/05/24 02:35:36;;;;;;;;;;;;;;;;;;5073605;28;19923;-74
2023/05/24 02:38:05;;;;;;;;;;;;;;;;;;5073448;28;19909;-73
2023/05/24 02:40:30;;;;;;;;;;;;;;;;;;5073475;28;20364;-75
2023/05/24 02:42:55;;;;;;;;;;;;;;;;;;5073497;28;20016;-75
2023/05/24 02:45:21;;;;;;;;;;;;;;;;;;5071835;28;20375;-75
2023/05/24 02:47:46;;;;;;;;;;;;;;;;;;5055732;28;19962;-75
2023/05/24 02:50:11;;;;;;;;;;;;;;;;;;5073429;28;19916;-75
2023/05/24 02:52:37;;;;;;;;;;;;;;;;;;5073226;28;19999;-76
2023/05/24 02:55:02;;;;;;;;;;;;;;;;;;5055479;28;19962;-76
2023/05/24 02:57:28;;;;;;;;;;;;;;;;;;5055394;28;19908;-75
2023/05/24 02:59:54;;;;;;;;;;;;;;;;;;5073580;28;20374;-75
2023/05/24 03:02:20;;;;;;;;;;;;;;;;;;5068546;28;20512;-76
2023/05/24 03:04:46;;;;;;;;;;;;;;;;;;5068259;28;19912;-76
2023/05/24 03:07:12;;;;;;;;;;;;;;;;;;5069304;28;19923;-75
2023/05/24 03:09:38;;;;;;;;;;;;;;;;;;5067947;28;19919;-76
2023/05/24 03:12:03;;;;;;;;;;;;;;;;;;5050694;28;19916;-75
2023/05/24 03:14:31;;;;;;;;;;;;;;;;;;5050799;28;19923;-75
2023/05/24 03:16:57;;;;;;;;;;;;;;;;;;5068052;28;19916;-75
2023/05/24 03:19:22;;;;;;;;;;;;;;;;;;5068559;28;19916;-75
2023/05/24 03:21:48;;;;;;;;;;;;;;;;;;5032775;28;20421;-75
2023/05/24 03:24:13;;;;;;;;;;;;;;;;;;5068921;28;19920;-75
2023/05/24 03:26:39;;;;;;;;;;;;;;;;;;5068914;28;19920;-76
2023/05/24 03:29:04;;;;;;;;;;;;;;;;;;5050637;28;20240;-75
2023/05/24 03:31:34;;;;;;;;;;;;;;;;;;5050620;28;19979;-75
2023/05/24 03:34:00;;;;;;;;;;;;;;;;;;5068394;28;20015;-75
2023/05/24 03:36:27;;;;;;;;;;;;;;;;;;5049748;28;20318;-76
2023/05/24 03:38:53;;;;;;;;;;;;;;;;;;5068769;28;20706;-75
2023/05/24 03:41:19;;;;;;;;;;;;;;;;;;5050521;28;19909;-76
2023/05/24 03:43:44;;;;;;;;;;;;;;;;;;5050888;28;19919;-74
2023/05/24 03:46:14;;;;;;;;;;;;;;;;;;5053442;28;19920;-75
2023/05/24 03:48:40;;;;;;;;;;;;;;;;;;5054273;28;19912;-75
2023/05/24 03:51:05;;;;;;;;;;;;;;;;;;5071926;28;19915;-73
2023/05/24 03:53:33;;;;;;;;;;;;;;;;;;5054045;28;19912;-73
2023/05/24 03:55:58;;;;;;;;;;;;;;;;;;5072211;28;19920;-73
2023/05/24 03:58:23;;;;;;;;;;;;;;;;;;5071765;28;19943;-73
2023/05/24 04:00:49;;;;;;;;;;;;;;;;;;5070734;28;19912;-75
2023/05/24 04:03:14;;;;;;;;;;;;;;;;;;5072004;28;19912;-75
2023/05/24 04:05:40;;;;;;;;;;;;;;;;;;5071833;28;20079;-76
2023/05/24 04:08:05;;;;;;;;;;;;;;;;;;5051936;28;19924;-75
2023/05/24 04:10:30;;;;;;;;;;;;;;;;;;5053722;28;19931;-76
2023/05/24 04:12:56;;;;;;;;;;;;;;;;;;5053692;28;19919;-75
2023/05/24 04:15:21;;;;;;;;;;;;;;;;;;5069930;28;20027;-74
2023/05/24 04:17:47;;;;;;;;;;;;;;;;;;5066975;28;19917;-75
2023/05/24 04:20:14;;;;;;;;;;;;;;;;;;5051998;28;19962;-79
2023/05/24 04:22:39;;;;;;;;;;;;;;;;;;5070572;28;19917;-75
2023/05/24 04:25:05;;;;;;;;;;;;;;;;;;5053558;28;19909;-75
2023/05/24 04:27:31;;;;;;;;;;;;;;;;;;5064381;28;19908;-75
2023/05/24 04:29:56;;;;;;;;;;;;;;;;;;5053637;28;20003;-75
2023/05/24 04:32:22;;;;;;;;;;;;;;;;;;5052313;28;20355;-75
2023/05/24 04:34:47;;;;;;;;;;;;;;;;;;5071030;28;19917;-74
2023/05/24 04:37:16;;;;;;;;;;;;;;;;;;5032124;28;19916;-74
2023/05/24 04:39:43;;;;;;;;;;;;;;;;;;5049951;28;19959;-74
2023/05/24 04:42:08;;;;;;;;;;;;;;;;;;5049344;28;19955;-74
2023/05/24 04:44:34;;;;;;;;;;;;;;;;;;5050026;28;20391;-74
2023/05/24 04:47:01;;;;;;;;;;;;;;;;;;5049463;28;19952;-74
2023/05/24 04:49:26;;;;;;;;;;;;;;;;;;5048977;28;19913;-74
2023/05/24 04:51:52;;;;;;;;;;;;;;;;;;5050103;28;20782;-74
2023/05/24 04:54:17;;;;;;;;;;;;;;;;;;5050034;28;20396;-74
2023/05/24 04:56:42;;;;;;;;;;;;;;;;;;5049262;28;20368;-74
2023/05/24 04:59:08;;;;;;;;;;;;;;;;;;5049197;28;20428;-74
2023/05/24 05:01:33;;;;;;;;;;;;;;;;;;5048721;28;20076;-74
2023/05/24 05:03:59;;;;;;;;;;;;;;;;;;5047909;28;19912;-74
2023/05/24 05:06:24;;;;;;;;;;;;;;;;;;5047140;28;19913;-74
2023/05/24 05:08:50;;;;;;;;;;;;;;;;;;5029672;28;19975;-74
2023/05/24 05:11:17;;;;;;;;;;;;;;;;;;5046793;28;19920;-74
2023/05/24 05:13:42;;;;;;;;;;;;;;;;;;5049526;28;20364;-74
2023/05/24 05:16:08;;;;;;;;;;;;;;;;;;5049412;28;19920;-74
2023/05/24 05:18:33;;;;;;;;;;;;;;;;;;5051240;28;19912;-74
2023/05/24 05:20:58;;;;;;;;;;;;;;;;;;5051312;28;19913;-74
2023/05/24 05:23:24;;;;;;;;;;;;;;;;;;5049718;28;19920;-74
2023/05/24 05:25:49;;;;;;;;;;;;;;;;;;5049594;28;19913;-74
2023/05/24 05:28:14;;;;;;;;;;;;;;;;;;5033080;28;19919;-74
2023/05/24 05:30:39;;;;;;;;;;;;;;;;;;5050688;28;20364;-74
2023/05/24 05:33:05;;;;;;;;;;;;;;;;;;5050955;28;20014;-74
2023/05/24 05:35:30;;;;;;;;;;;;;;;;;;5048700;28;19919;-74
2023/05/24 05:37:55;;;;;;;;;;;;;;;;;;5050549;28;19916;-74
2023/05/24 05:40:20;;;;;;;;;;;;;;;;;;5050455;28;19920;-74
2023/05/24 05:42:46;;;;;;;;;;;;;;;;;;5049066;28;19909;-74
2023/05/24 05:45:11;;;;;;;;;;;;;;;;;;5048456;28;19913;-74
2023/05/24 05:47:36;;;;;;;;;;;;;;;;;;5048256;28;19913;-73
2023/05/24 05:50:02;;;;;;;;;;;;;;;;;;5048250;28;19913;-74
2023/05/24 05:52:27;;;;;;;;;;;;;;;;;;5049187;28;19916;-74
2023/05/24 05:54:53;;;;;;;;;;;;;;;;;;5047564;28;19916;-74
2023/05/24 05:57:22;;;;;;;;;;;;;;;;;;5050135;28;19917;-73
2023/05/24 05:59:48;;;;;;;;;;;;;;;;;;5050381;28;20395;-74
2023/05/24 06:02:13;;;;;;;;;;;;;;;;;;5049094;28;19917;-73
2023/05/24 06:04:38;;;;;;;;;;;;;;;;;;5050554;28;19931;-73
2023/05/24 06:07:03;;;;;;;;;;;;;;;;;;5031796;28;19920;-74
2023/05/24 06:09:29;;;;;;;;;;;;;;;;;;5050231;28;20379;-74
2023/05/24 06:11:54;;;;;;;;;;;;;;;;;;5050781;28;20288;-74
2023/05/24 06:14:23;;;;;;;;;;;;;;;;;;5049857;28;19962;-74
2023/05/24 06:16:51;;;;;;;;;;;;;;;;;;5050038;28;19917;-73
2023/05/24 06:19:17;;;;;;;;;;;;;;;;;;5049800;28;20388;-74
2023/05/24 06:21:46;;;;;;;;;;;;;;;;;;5049983;28;20002;-74
2023/05/24 06:24:12;;;;;;;;;;;;;;;;;;5049743;28;19912;-73
2023/05/24 06:26:37;;;;;;;;;;;;;;;;;;5048780;28;20287;-74
2023/05/24 06:29:02;;;;;;;;;;;;;;;;;;5050153;28;19967;-74
2023/05/24 06:31:28;;;;;;;;;;;;;;;;;;5049762;28;19913;-74
2023/05/24 06:33:53;;;;;;;;;;;;;;;;;;5049725;28;19980;-73
2023/05/24 06:36:18;;;;;;;;;;;;;;;;;;5049276;28;19920;-73
2023/05/24 06:38:43;;;;;;;;;;;;;;;;;;5049707;28;19955;-73
2023/05/24 06:41:08;;;;;;;;;;;;;;;;;;5049551;28;19912;-73
2023/05/24 06:43:34;;;;;;;;;;;;;;;;;;5049945;28;20164;-73
2023/05/24 06:45:59;;;;;;;;;;;;;;;;;;5048408;28;19924;-73
2023/05/24 06:48:25;;;;;;;;;;;;;;;;;;5049017;28;19968;-74
2023/05/24 06:50:50;;;;;;;;;;;;;;;;;;5049450;28;19916;-73
2023/05/24 06:53:15;;;;;;;;;;;;;;;;;;5049480;28;19995;-73
2023/05/24 06:55:41;;;;;;;;;;;;;;;;;;5049736;28;20376;-73
2023/05/24 06:58:06;;;;;;;;;;;;;;;;;;5049323;28;19909;-73
2023/05/24 07:00:31;;;;;;;;;;;;;;;;;;5047912;28;19920;-73
2023/05/24 07:02:57;;;;;;;;;;;;;;;;;;5049451;28;19956;-73
2023/05/24 07:05:22;;;;;;;;;;;;;;;;;;5031368;28;19915;-73
2023/05/24 07:07:47;;;;;;;;;;;;;;;;;;5047658;28;19919;-73
2023/05/24 07:10:13;;;;;;;;;;;;;;;;;;5048912;28;19913;-74
2023/05/24 07:12:38;;;;;;;;;;;;;;;;;;5049358;28;19908;-73
2023/05/24 07:15:03;;;;;;;;;;;;;;;;;;5049218;28;19967;-73
2023/05/24 07:17:29;;;;;;;;;;;;;;;;;;5049041;28;19912;-73
2023/05/24 07:19:54;;;;;;;;;;;;;;;;;;5048149;28;20292;-73
2023/05/24 07:22:19;;;;;;;;;;;;;;;;;;5048679;28;19921;-73
2023/05/24 07:24:44;;;;;;;;;;;;;;;;;;5048102;28;19913;-73
2023/05/24 07:27:10;;;;;;;;;;;;;;;;;;5049024;28;19919;-73
2023/05/24 07:29:35;;;;;;;;;;;;;;;;;;5048827;28;19923;-73
2023/05/24 07:32:01;;;;;;;;;;;;;;;;;;5061662;28;19962;-73
2023/05/24 07:34:28;;;;;;;;;;;;;;;;;;5068921;28;20299;-73
2023/05/24 07:36:54;;;;;;;;;;;;;;;;;;5068896;28;19966;-72
2023/05/24 07:39:19;;;;;;;;;;;;;;;;;;5068721;28;19920;-73
2023/05/24 07:41:44;;;;;;;;;;;;;;;;;;5068735;28;19919;-73
2023/05/24 07:44:10;;;;;;;;;;;;;;;;;;5068583;28;20019;-73
2023/05/24 07:46:36;;;;;;;;;;;;;;;;;;5068754;28;19908;-72
2023/05/24 07:49:02;;;;;;;;;;;;;;;;;;5068636;28;19912;-72
2023/05/24 07:51:27;;;;;;;;;;;;;;;;;;5050255;28;19966;-74
2023/05/24 07:53:52;;;;;;;;;;;;;;;;;;5068523;28;19912;-74
2023/05/24 07:56:18;;;;;;;;;;;;;;;;;;5068354;28;19970;-74
2023/05/24 07:58:45;;;;;;;;;;;;;;;;;;5068900;28;19977;-74
2023/05/24 08:01:10;;;;;;;;;;;;;;;;;;5068338;28;19912;-74
2023/05/24 08:03:36;;;;;;;;;;;;;;;;;;5068401;28;20279;-74
2023/05/24 08:06:02;;;;;;;;;;;;;;;;;;5068431;28;19908;-74
2023/05/24 08:08:28;;;;;;;;;;;;;;;;;;5068416;28;20669;-74
2023/05/24 08:10:53;;;;;;;;;;;;;;;;;;5068484;28;19923;-73
2023/05/24 08:13:18;;;;;;;;;;;;;;;;;;5068396;28;19923;-74
2023/05/24 08:15:44;;;;;;;;;;;;;;;;;;5068209;28;19931;-74
2023/05/24 08:18:09;;;;;;;;;;;;;;;;;;5068295;28;19915;-74
2023/05/24 08:20:35;;;;;;;;;;;;;;;;;;5068197;28;19916;-74
2023/05/24 08:23:01;;;;;;;;;;;;;;;;;;5068152;28;20298;-74
2023/05/24 08:25:26;;;;;;;;;;;;;;;;;;5068259;28;19921;-74
2023/05/24 08:27:52;;;;;;;;;;;;;;;;;;5068779;28;19977;-74
2023/05/24 08:30:18;;;;;;;;;;;;;;;;;;5068372;28;19913;-75
2023/05/24 08:33:09;;;;;;;;;;;;;;;;;;5057711;28;19914;-74
2023/05/24 08:35:35;;;;;;;;;;;;;;;;;;5071516;28;20014;-75
2023/05/24 08:38:00;;;;;;;;;;;;;;;;;;5071049;28;19923;-74
2023/05/24 08:40:25;;;;;;;;;;;;;;;;;;5071771;28;19915;-74
2023/05/24 08:42:51;;;;;;;;;;;;;;;;;;5071536;28;19912;-75
2023/05/24 08:45:16;;;;;;;;;;;;;;;;;;5071433;28;19999;-74
2023/05/24 08:47:41;;;;;;;;;;;;;;;;;;5071546;28;19956;-74
2023/05/24 08:50:07;;;;;;;;;;;;;;;;;;5071184;28;19916;-75
2023/05/24 08:52:32;;;;;;;;;;;;;;;;;;5053705;28;20355;-74
2023/05/24 08:54:57;;;;;;;;;;;;;;;;;;5071386;28;19913;-74
2023/05/24 08:57:23;;;;;;;;;;;;;;;;;;5071641;28;19912;-74
2023/05/24 08:59:48;;;;;;;;;;;;;;;;;;5071107;28;19912;-73
2023/05/24 09:02:13;;;;;;;;;;;;;;;;;;5067424;28;20151;-74
2023/05/24 09:04:39;;;;;;;;;;;;;;;;;;5057296;28;20383;-74
2023/05/24 09:07:04;;;;;;;;;;;;;;;;;;5058396;28;19923;-74
2023/05/24 09:09:30;;;;;;;;;;;;;;;;;;5061418;28;19912;-74
2023/05/24 09:11:55;;;;;;;;;;;;;;;;;;5052690;28;20473;-73
2023/05/24 09:14:20;;;;;;;;;;;;;;;;;;5050601;28;19960;-71
2023/05/24 09:16:46;;;;;;;;;;;;;;;;;;5049325;28;19912;-70
2023/05/24 09:19:12;;;;;;;;;;;;;;;;;;5052268;28;20042;-71
2023/05/24 09:21:38;;;;;;;;;;;;;;;;;;5056969;28;20352;-70
2023/05/24 09:24:03;;;;;;;;;;;;;;;;;;5048899;28;20394;-69
2023/05/24 09:26:29;;;;;;;;;;;;;;;;;;5057923;28;19916;-69
2023/05/24 09:28:55;;;;;;;;;;;;;;;;;;5062339;28;19917;-73
2023/05/24 09:31:20;;;;;;;;;;;;;;;;;;5048140;28;20272;-71
2023/05/24 09:33:45;;;;;;;;;;;;;;;;;;5049026;28;19916;-72
2023/05/24 09:36:11;;;;;;;;;;;;;;;;;;5046554;28;19927;-71
2023/05/24 09:38:36;;;;;;;;;;;;;;;;;;5070987;28;19920;-71
2023/05/24 09:41:01;;;;;;;;;;;;;;;;;;5070137;28;19912;-70
2023/05/24 09:43:29;;;;;;;;;;;;;;;;;;5069363;28;20480;-70
2023/05/24 09:45:54;;;;;;;;;;;;;;;;;;5069713;28;19916;-70
2023/05/24 09:48:20;;;;;;;;;;;;;;;;;;5070261;28;19999;-72
2023/05/24 09:50:46;;;;;;;;;;;;;;;;;;5035386;28;19913;-71
2023/05/24 09:53:11;;;;;;;;;;;;;;;;;;5069175;28;20352;-72
2023/05/24 09:55:36;;;;;;;;;;;;;;;;;;5068643;28;19981;-71
2023/05/24 09:58:02;;;;;;;;;;;;;;;;;;5050050;28;19918;-73
2023/05/24 10:00:27;;;;;;;;;;;;;;;;;;5068620;28;20388;-72
2023/05/24 10:02:52;;;;;;;;;;;;;;;;;;5069781;28;19912;-72
2023/05/24 10:05:17;;;;;;;;;;;;;;;;;;5069915;28;20002;-72
2023/05/24 10:07:43;;;;;;;;;;;;;;;;;;5069519;28;20041;-72
2023/05/24 10:10:08;;;;;;;;;;;;;;;;;;5070106;28;20275;-72
2023/05/24 10:12:34;;;;;;;;;;;;;;;;;;5070081;28;19922;-71
2023/05/24 10:14:59;;;;;;;;;;;;;;;;;;5070226;28;19920;-72
2023/05/24 10:17:28;;;;;;;;;;;;;;;;;;5069899;28;20068;-73
2023/05/24 10:19:53;;;;;;;;;;;;;;;;;;5068155;28;20007;-72
2023/05/24 10:22:21;;;;;;;;;;;;;;;;;;5067650;28;20055;-71
2023/05/24 10:24:46;;;;;;;;;;;;;;;;;;5069330;28;20329;-72
2023/05/24 10:27:12;;;;;;;;;;;;;;;;;;5070577;28;19990;-72
2023/05/24 10:29:37;;;;;;;;;;;;;;;;;;5054627;28;19987;-70
2023/05/24 10:32:03;;;;;;;;;;;;;;;;;;5066029;28;19935;-71
2023/05/24 10:34:29;;;;;;;;;;;;;;;;;;5061068;28;19912;-70
2023/05/24 10:36:54;;;;;;;;;;;;;;;;;;5048919;28;19921;-71
2023/05/24 10:39:20;;;;;;;;;;;;;;;;;;5030209;28;19916;-71
2023/05/24 10:41:45;;;;;;;;;;;;;;;;;;5030024;28;19913;-73
2023/05/24 10:44:11;;;;;;;;;;;;;;;;;;5049130;28;20268;-72
2023/05/24 10:46:37;;;;;;;;;;;;;;;;;;5049547;28;19919;-71
2023/05/24 10:49:04;;;;;;;;;;;;;;;;;;5015245;28;20011;-71
2023/05/24 10:51:33;;;;;;;;;;;;;;;;;;5048436;28;19912;-71
2023/05/24 10:53:58;;;;;;;;;;;;;;;;;;5028197;28;19952;-71
2023/05/24 10:56:23;;;;;;;;;;;;;;;;;;5047148;28;19964;-71
2023/05/24 10:58:49;;;;;;;;;;;;;;;;;;5047380;28;19917;-71
2023/05/24 11:01:14;;;;;;;;;;;;;;;;;;5051531;28;19916;-71
2023/05/24 11:03:40;;;;;;;;;;;;;;;;;;5065489;28;19953;-69
2023/05/24 11:06:05;;;;;;;;;;;;;;;;;;5047435;28;20309;-71
2023/05/24 11:08:31;;;;;;;;;;;;;;;;;;5066772;28;19919;-70
2023/05/24 11:10:57;;;;;;;;;;;;;;;;;;5069217;28;19916;-70
2023/05/24 11:13:22;;;;;;;;;;;;;;;;;;5051253;28;19961;-71
2023/05/24 11:15:47;;;;;;;;;;;;;;;;;;5051051;28;20375;-70
2023/05/24 11:18:13;;;;;;;;;;;;;;;;;;5068885;28;20033;-71
2023/05/24 11:20:38;;;;;;;;;;;;;;;;;;5068271;28;19916;-73
2023/05/24 11:23:03;;;;;;;;;;;;;;;;;;5068879;28;19997;-72
2023/05/24 11:25:28;;;;;;;;;;;;;;;;;;5068878;28;19913;-71
2023/05/24 11:27:54;;;;;;;;;;;;;;;;;;5069264;28;20272;-71
2023/05/24 11:30:19;;;;;;;;;;;;;;;;;;5069000;28;20735;-72
2023/05/24 11:32:44;;;;;;;;;;;;;;;;;;5068923;28;19912;-72
2023/05/24 11:35:10;;;;;;;;;;;;;;;;;;5068578;28;19920;-73
2023/05/24 11:37:35;;;;;;;;;;;;;;;;;;5050783;28;20069;-70
2023/05/24 11:40:01;;;;;;;;;;;;;;;;;;5068455;28;20295;-72
2023/05/24 11:42:26;;;;;;;;;;;;;;;;;;5068429;28;19958;-72
2023/05/24 11:44:51;;;;;;;;;;;;;;;;;;5068020;28;20359;-71
2023/05/24 11:47:16;;;;;;;;;;;;;;;;;;5067281;28;20054;-71
2023/05/24 11:49:42;;;;;;;;;;;;;;;;;;5068445;28;19920;-71
2023/05/24 11:52:07;;;;;;;;;;;;;;;;;;5068565;28;20426;-71
2023/05/24 11:54:33;;;;;;;;;;;;;;;;;;5078266;28;19981;-71
2023/05/24 11:56:58;;;;;;;;;;;;;;;;;;5060439;28;19982;-70
2023/05/24 11:59:24;;;;;;;;;;;;;;;;;;5077288;28;20446;-71
2023/05/24 12:01:50;;;;;;;;;;;;;;;;;;5055503;28;19966;-70
2023/05/24 12:04:15;;;;;;;;;;;;;;;;;;5055450;28;20398;-71
2023/05/24 12:06:40;;;;;;;;;;;;;;;;;;5033165;28;19916;-72
2023/05/24 12:09:12;;;;;;;;;;;;;;;;;;5051624;28;19966;-70
2023/05/24 12:11:38;;;;;;;;;;;;;;;;;;5051507;28;19949;-71
2023/05/24 12:14:04;;;;;;;;;;;;;;;;;;5061156;28;19912;-72
2023/05/24 12:16:31;;;;;;;;;;;;;;;;;;5082816;28;20363;-72
2023/05/24 12:18:56;;;;;;;;;;;;;;;;;;5091886;28;19951;-71
2023/05/24 12:21:21;;;;;;;;;;;;;;;;;;5092344;28;19962;-71
2023/05/24 12:23:46;;;;;;;;;;;;;;;;;;5073774;28;19923;-71
2023/05/24 12:26:12;;;;;;;;;;;;;;;;;;5091839;28;20355;-71
2023/05/24 12:28:37;;;;;;;;;;;;;;;;;;5082763;28;19908;-70
2023/05/24 12:31:03;;;;;;;;;;;;;;;;;;5074707;28;20364;-72
2023/05/24 12:33:28;;;;;;;;;;;;;;;;;;5071156;28;20007;-71
2023/05/24 12:35:53;;;;;;;;;;;;;;;;;;5052399;28;19974;-71
2023/05/24 12:38:24;;;;;;;;;;;;;;;;;;5051657;28;20011;-71
2023/05/24 12:40:49;;;;;;;;;;;;;;;;;;5069321;28;19955;-70
2023/05/24 12:43:15;;;;;;;;;;;;;;;;;;5070456;28;20334;-70
2023/05/24 12:45:40;;;;;;;;;;;;;;;;;;5069973;28;20002;-70
2023/05/24 12:48:05;;;;;;;;;;;;;;;;;;5035355;28;19958;-71
2023/05/24 12:50:30;;;;;;;;;;;;;;;;;;5069719;28;19939;-71
2023/05/24 12:52:56;;;;;;;;;;;;;;;;;;5071409;28;19993;-73
2023/05/24 12:55:21;;;;;;;;;;;;;;;;;;5053914;28;20360;-70
2023/05/24 12:57:53;;;;;;;;;;;;;;;;;;5053294;28;19912;-70
2023/05/24 13:00:18;;;;;;;;;;;;;;;;;;5070693;28;19912;-71
2023/05/24 13:02:43;;;;;;;;;;;;;;;;;;5064434;28;19939;-70
2023/05/24 13:05:09;;;;;;;;;;;;;;;;;;5077331;28;19912;-72
2023/05/24 13:07:34;;;;;;;;;;;;;;;;;;5064706;28;19916;-70
2023/05/24 13:10:00;;;;;;;;;;;;;;;;;;5063775;28;19919;-72
2023/05/24 13:12:28;;;;;;;;;;;;;;;;;;5076967;28;19919;-70
2023/05/24 13:14:53;;;;;;;;;;;;;;;;;;5081066;28;19916;-73
2023/05/24 13:17:19;;;;;;;;;;;;;;;;;;5058686;28;20435;-71
2023/05/24 13:19:44;;;;;;;;;;;;;;;;;;5080347;28;19919;-71
2023/05/24 13:22:09;;;;;;;;;;;;;;;;;;5076106;28;19917;-73
2023/05/24 13:24:35;;;;;;;;;;;;;;;;;;5080806;28;19913;-72
2023/05/24 13:27:00;;;;;;;;;;;;;;;;;;5078257;28;20319;-70
2023/05/24 13:29:26;;;;;;;;;;;;;;;;;;5073878;28;19934;-72
2023/05/24 13:31:51;;;;;;;;;;;;;;;;;;5048136;28;19919;-70
2023/05/24 13:34:17;;;;;;;;;;;;;;;;;;5050206;28;19913;-70
2023/05/24 13:36:42;;;;;;;;;;;;;;;;;;5032586;28;19921;-73
2023/05/24 13:39:11;;;;;;;;;;;;;;;;;;5066362;28;19974;-71
2023/05/24 13:41:37;;;;;;;;;;;;;;;;;;5070356;28;19916;-72
2023/05/24 13:44:02;;;;;;;;;;;;;;;;;;5068594;28;19912;-70
2023/05/24 13:46:28;;;;;;;;;;;;;;;;;;5069263;28;19924;-72
2023/05/24 13:48:53;;;;;;;;;;;;;;;;;;5069585;28;20382;-71
2023/05/24 13:51:18;;;;;;;;;;;;;;;;;;5070112;28;19916;-71
2023/05/24 13:53:44;;;;;;;;;;;;;;;;;;5070609;28;19951;-71
2023/05/24 13:56:09;;;;;;;;;;;;;;;;;;5051739;28;19916;-73
2023/05/24 13:58:35;;;;;;;;;;;;;;;;;;5069424;28;20279;-71
2023/05/24 14:01:02;;;;;;;;;;;;;;;;;;5050213;28;19911;-71
2023/05/24 14:03:27;;;;;;;;;;;;;;;;;;5068051;28;19919;-71
2023/05/24 14:05:52;;;;;;;;;;;;;;;;;;5050198;28;20329;-73
2023/05/24 14:08:18;;;;;;;;;;;;;;;;;;5050236;28;20022;-72
2023/05/24 14:10:43;;;;;;;;;;;;;;;;;;5084174;28;20074;-71
2023/05/24 14:13:09;;;;;;;;;;;;;;;;;;5068373;28;20279;-70
2023/05/24 14:15:34;;;;;;;;;;;;;;;;;;5052252;28;19913;-71
2023/05/24 14:18:00;;;;;;;;;;;;;;;;;;5052050;28;19916;-71
2023/05/24 14:20:25;;;;;;;;;;;;;;;;;;5069208;28;20379;-70
2023/05/24 14:22:50;;;;;;;;;;;;;;;;;;5069890;28;19952;-69
2023/05/24 14:25:16;;;;;;;;;;;;;;;;;;5069531;28;19917;-73
2023/05/24 14:27:42;;;;;;;;;;;;;;;;;;5069850;28;19978;-70
2023/05/24 14:30:08;;;;;;;;;;;;;;;;;;5068356;28;19913;-69
2023/05/24 14:32:33;;;;;;;;;;;;;;;;;;5083785;28;19916;-69
2023/05/24 14:34:59;;;;;;;;;;;;;;;;;;5051688;28;19916;-71
2023/05/24 14:37:24;;;;;;;;;;;;;;;;;;5069781;28;19916;-70
2023/05/24 14:39:49;;;;;;;;;;;;;;;;;;5068857;28;19999;-71
2023/05/24 14:42:14;;;;;;;;;;;;;;;;;;5068052;28;19912;-71
2023/05/24 14:44:40;;;;;;;;;;;;;;;;;;5051764;28;19916;-70
2023/05/24 14:47:05;;;;;;;;;;;;;;;;;;5069465;28;20390;-70
2023/05/24 14:49:31;;;;;;;;;;;;;;;;;;5084861;28;19913;-71
2023/05/24 14:51:56;;;;;;;;;;;;;;;;;;5069083;28;19912;-70
2023/05/24 14:54:21;;;;;;;;;;;;;;;;;;5069227;28;20047;-71
2023/05/24 14:56:46;;;;;;;;;;;;;;;;;;5069054;28;19916;-71
2023/05/24 14:59:13;;;;;;;;;;;;;;;;;;5068380;28;20001;-72
2023/05/24 15:01:38;;;;;;;;;;;;;;;;;;5069356;28;19919;-72
2023/05/24 15:04:03;;;;;;;;;;;;;;;;;;5069433;28;19916;-71
2023/05/24 15:06:33;;;;;;;;;;;;;;;;;;5069615;28;19999;-72
2023/05/24 15:08:59;;;;;;;;;;;;;;;;;;5069440;28;19913;-72
2023/05/24 15:11:25;;;;;;;;;;;;;;;;;;5069096;28;19916;-71
2023/05/24 15:13:54;;;;;;;;;;;;;;;;;;5069251;28;20389;-69
2023/05/24 15:16:19;;;;;;;;;;;;;;;;;;5071399;28;20294;-72
2023/05/24 15:18:45;;;;;;;;;;;;;;;;;;5039124;28;19954;-70
2023/05/24 15:21:10;;;;;;;;;;;;;;;;;;5068740;28;19974;-70
2023/05/24 15:23:35;;;;;;;;;;;;;;;;;;5051366;28;19909;-70
2023/05/24 15:26:01;;;;;;;;;;;;;;;;;;5069832;28;19927;-70
2023/05/24 15:28:26;;;;;;;;;;;;;;;;;;5049554;28;19916;-70
2023/05/24 15:30:51;;;;;;;;;;;;;;;;;;5066915;28;20331;-71
2023/05/24 15:33:17;;;;;;;;;;;;;;;;;;5067337;28;20443;-71
2023/05/24 15:35:42;;;;;;;;;;;;;;;;;;5067050;28;19916;-72
2023/05/24 15:38:07;;;;;;;;;;;;;;;;;;5067680;28;20417;-72
2023/05/24 15:40:32;;;;;;;;;;;;;;;;;;5065597;28;19912;-71
2023/05/24 15:42:58;;;;;;;;;;;;;;;;;;5066398;28;20007;-72
2023/05/24 15:45:23;;;;;;;;;;;;;;;;;;5066865;28;20360;-71
2023/05/24 15:47:48;;;;;;;;;;;;;;;;;;5047368;28;19912;-72
2023/05/24 15:50:13;;;;;;;;;;;;;;;;;;5064545;28;19916;-71
2023/05/24 15:52:39;;;;;;;;;;;;;;;;;;5063334;28;19919;-70
2023/05/24 15:55:04;;;;;;;;;;;;;;;;;;5064707;28;19924;-71
2023/05/24 15:57:30;;;;;;;;;;;;;;;;;;5046821;28;20397;-70
2023/05/24 15:59:55;;;;;;;;;;;;;;;;;;5065091;28;19919;-73
2023/05/24 16:02:20;;;;;;;;;;;;;;;;;;5065534;28;19917;-70
2023/05/24 16:04:45;;;;;;;;;;;;;;;;;;5066436;28;19908;-72
2023/05/24 16:07:11;;;;;;;;;;;;;;;;;;5066576;28;19912;-69
2023/05/24 16:09:36;;;;;;;;;;;;;;;;;;5068417;28;19927;-70
2023/05/24 16:12:01;;;;;;;;;;;;;;;;;;5068293;28;19919;-70
2023/05/24 16:14:27;;;;;;;;;;;;;;;;;;5050578;28;20267;-69
2023/05/24 16:16:52;;;;;;;;;;;;;;;;;;5067468;28;19978;-69
2023/05/24 16:19:18;;;;;;;;;;;;;;;;;;5068370;28;19912;-70
2023/05/24 16:21:43;;;;;;;;;;;;;;;;;;5068018;28;19927;-69
2023/05/24 16:24:08;;;;;;;;;;;;;;;;;;5068325;28;19912;-70
2023/05/24 16:26:33;;;;;;;;;;;;;;;;;;5050472;28;20302;-70